Time;durP1;ratioP1;P1;durP2;ratioP2;P2;SDS_P1;SDS_P2;PMS_P1;PMS_P2;Temp;Humidity;BMP_temperature;BMP_pressure;BME280_temperature;BME280_humidity;BME280_pressure;Samples;Min_cycle;Max_cycle;Signal;HPM_P1;HPM_P2
2023/08/27 00:00:43;;;;;;;11.05;8.60;;;24.20;83.70;;;;;;5011776;28;20045;-56
2023/08/27 00:03:09;;;;;;;8.98;7.97;;;24.20;83.70;;;;;;5011884;28;20026;-57
2023/08/27 00:05:42;;;;;;;9.20;8.25;;;24.20;83.70;;;;;;5011704;28;20072;-56
2023/08/27 00:08:07;;;;;;;9.18;8.27;;;24.10;84.40;;;;;;5011945;28;20461;-56
2023/08/27 00:10:33;;;;;;;9.07;7.35;;;24.10;83.90;;;;;;5011673;28;20033;-57
2023/08/27 00:12:58;;;;;;;10.88;8.23;;;24.10;83.90;;;;;;5011133;28;20026;-57
2023/08/27 00:15:24;;;;;;;9.10;7.97;;;24.10;84.00;;;;;;5011500;28;20025;-57
2023/08/27 00:17:50;;;;;;;9.13;8.10;;;24.10;84.00;;;;;;5011496;28;20026;-57
2023/08/27 00:20:17;;;;;;;10.88;8.63;;;24.10;84.10;;;;;;5011513;28;20025;-55
2023/08/27 00:22:43;;;;;;;8.93;7.80;;;24.10;84.20;;;;;;5011514;28;20030;-55
2023/08/27 00:25:08;;;;;;;10.88;8.93;;;24.10;84.10;;;;;;5011471;28;20026;-56
2023/08/27 00:27:34;;;;;;;11.35;7.75;;;24.10;84.20;;;;;;5011354;28;20054;-56
2023/08/27 00:30:00;;;;;;;11.05;7.95;;;24.10;84.30;;;;;;5011498;28;20053;-56
2023/08/27 00:32:31;;;;;;;10.02;7.90;;;24.10;84.30;;;;;;5011715;28;20470;-57
2023/08/27 00:34:57;;;;;;;9.82;7.90;;;24.10;84.50;;;;;;5011677;28;20030;-57
2023/08/27 00:37:22;;;;;;;10.48;8.05;;;24.00;84.30;;;;;;5011394;28;20468;-57
2023/08/27 00:39:48;;;;;;;8.90;7.35;;;24.00;84.40;;;;;;5011914;28;20022;-56
2023/08/27 00:42:14;;;;;;;10.65;8.20;;;24.00;84.50;;;;;;5011646;28;20107;-55
2023/08/27 00:44:39;;;;;;;10.27;7.70;;;24.00;84.60;;;;;;5011341;28;20084;-56
2023/08/27 00:47:06;;;;;;;9.07;7.53;;;24.00;84.60;;;;;;5011417;28;20104;-56
2023/08/27 00:49:32;;;;;;;11.23;7.90;;;24.00;84.70;;;;;;5011282;28;20440;-57
2023/08/27 00:51:59;;;;;;;10.02;8.07;;;24.00;84.90;;;;;;5011517;28;20025;-57
2023/08/27 00:54:26;;;;;;;9.00;7.78;;;23.90;85.00;;;;;;5011222;28;20437;-57
2023/08/27 00:56:52;;;;;;;9.13;7.90;;;23.90;84.90;;;;;;5011475;28;20056;-56
2023/08/27 00:59:17;;;;;;;8.93;7.85;;;23.90;85.00;;;;;;5011182;28;20022;-56
2023/08/27 01:01:43;;;;;;;11.20;8.82;;;23.90;85.00;;;;;;5011165;28;20030;-56
2023/08/27 01:04:09;;;;;;;9.95;8.38;;;23.90;85.10;;;;;;5011217;28;20018;-57
2023/08/27 01:06:35;;;;;;;9.65;8.38;;;23.90;85.00;;;;;;5011636;28;20033;-56
2023/08/27 01:09:20;;;;;;;9.40;8.13;;;23.90;85.10;;;;;;5011082;28;20034;-56
2023/08/27 01:12:04;;;;;;;8.95;7.80;;;23.80;85.20;;;;;;5011472;28;20030;-57
2023/08/27 01:14:34;;;;;;;8.88;7.97;;;23.80;85.40;;;;;;5011145;28;20034;-57
2023/08/27 01:17:03;;;;;;;9.07;8.17;;;23.80;85.50;;;;;;5011582;28;20060;-56
2023/08/27 01:19:30;;;;;;;8.90;7.28;;;23.80;85.40;;;;;;5011324;28;20022;-57
2023/08/27 01:21:56;;;;;;;12.05;8.05;;;23.80;85.50;;;;;;5011003;28;20113;-56
2023/08/27 01:24:22;;;;;;;9.10;8.00;;;23.80;85.40;;;;;;5011801;28;20049;-57
2023/08/27 01:27:04;;;;;;;10.88;8.35;;;23.80;85.60;;;;;;5014557;28;20124;-56
2023/08/27 01:29:45;;;;;;;8.90;7.88;;;23.80;85.50;;;;;;5029769;28;20026;-57
2023/08/27 01:32:29;;;;;;;10.23;8.27;;;23.80;85.70;;;;;;5014439;28;20390;-57
2023/08/27 01:34:55;;;;;;;8.77;7.28;;;23.80;85.40;;;;;;5014638;28;20041;-55
2023/08/27 01:37:21;;;;;;;8.90;8.00;;;23.80;85.70;;;;;;5014587;28;20034;-57
2023/08/27 01:39:56;;;;;;;9.55;8.50;;;23.80;85.70;;;;;;5014303;28;20075;-57
2023/08/27 01:42:21;;;;;;;8.95;7.88;;;23.80;85.90;;;;;;5014381;28;20425;-56
2023/08/27 01:44:47;;;;;;;9.23;7.18;;;23.70;85.70;;;;;;5014225;28;20064;-56
2023/08/27 01:47:13;;;;;;;8.10;7.30;;;23.70;85.70;;;;;;5014142;28;20091;-57
2023/08/27 01:49:38;;;;;;;8.07;7.03;;;23.80;85.70;;;;;;5014090;28;20026;-56
2023/08/27 01:52:04;;;;;;;9.32;7.78;;;23.80;86.00;;;;;;5014088;28;20099;-57
2023/08/27 01:54:33;;;;;;;8.52;7.32;;;23.70;85.70;;;;;;5014088;28;20537;-56
2023/08/27 01:56:58;;;;;;;9.93;7.60;;;23.80;85.90;;;;;;5014124;28;20041;-56
2023/08/27 01:59:24;;;;;;;10.98;7.65;;;23.70;85.70;;;;;;5013962;28;20366;-57
2023/08/27 02:01:50;;;;;;;8.05;7.25;;;23.70;85.70;;;;;;5013870;28;20022;-54
2023/08/27 02:04:15;;;;;;;8.40;7.55;;;23.80;85.80;;;;;;5013886;28;20073;-56
2023/08/27 02:06:41;;;;;;;9.10;7.70;;;23.80;85.70;;;;;;5013848;28;20033;-57
2023/08/27 02:09:06;;;;;;;8.95;8.02;;;23.80;85.90;;;;;;5013693;28;20018;-54
2023/08/27 02:11:32;;;;;;;8.73;7.93;;;23.70;85.70;;;;;;5013905;28;20034;-54
2023/08/27 02:13:58;;;;;;;9.73;8.07;;;23.70;85.70;;;;;;5013639;28;20030;-56
2023/08/27 02:16:23;;;;;;;11.32;8.60;;;23.70;85.70;;;;;;5013540;28;20060;-56
2023/08/27 02:18:49;;;;;;;11.18;8.25;;;23.70;85.70;;;;;;5013525;28;20087;-57
2023/08/27 02:21:15;;;;;;;10.43;9.32;;;23.70;85.80;;;;;;5013530;28;20390;-57
2023/08/27 02:23:41;;;;;;;9.60;8.40;;;23.70;85.80;;;;;;5013672;28;20555;-57
2023/08/27 02:26:06;;;;;;;9.63;8.63;;;23.70;85.80;;;;;;5013350;28;20046;-56
2023/08/27 02:28:33;;;;;;;10.73;8.15;;;23.70;85.80;;;;;;5013227;28;20521;-57
2023/08/27 02:30:59;;;;;;;43.28;10.77;;;23.60;85.70;;;;;;5013455;28;20148;-56
2023/08/27 02:33:24;;;;;;;59.83;13.07;;;23.60;86.10;;;;;;5013926;28;20030;-57
2023/08/27 02:35:50;;;;;;;8.98;8.05;;;23.60;86.00;;;;;;5012866;28;20093;-57
2023/08/27 02:38:17;;;;;;;8.93;7.97;;;23.60;86.10;;;;;;5011893;28;20030;-56
2023/08/27 02:40:42;;;;;;;8.85;7.65;;;23.60;86.10;;;;;;5013133;28;20100;-57
2023/08/27 02:43:08;;;;;;;9.93;8.30;;;23.60;86.10;;;;;;5013038;28;20541;-56
2023/08/27 02:45:34;;;;;;;8.88;7.97;;;23.60;86.10;;;;;;5013154;28;20062;-56
2023/08/27 02:47:59;;;;;;;9.32;7.60;;;23.60;86.20;;;;;;5013015;28;20474;-56
2023/08/27 02:50:25;;;;;;;9.82;8.40;;;23.60;86.20;;;;;;5013039;28;20448;-56
2023/08/27 02:52:51;;;;;;;10.95;8.95;;;23.60;86.20;;;;;;5012895;28;20524;-56
2023/08/27 02:55:16;;;;;;;9.82;8.13;;;23.60;86.10;;;;;;5012939;28;20033;-53
2023/08/27 02:57:42;;;;;;;9.75;7.85;;;23.60;86.20;;;;;;5013074;28;20543;-55
2023/08/27 03:00:08;;;;;;;9.02;8.13;;;23.60;86.10;;;;;;5012628;28;20026;-56
2023/08/27 03:02:34;;;;;;;8.77;7.35;;;23.60;86.20;;;;;;5013075;28;20075;-57
2023/08/27 03:05:03;;;;;;;8.90;8.05;;;23.60;86.20;;;;;;5012638;28;20100;-57
2023/08/27 03:07:28;;;;;;;9.32;7.97;;;23.60;86.50;;;;;;5012693;28;20025;-57
2023/08/27 03:09:54;;;;;;;9.68;8.15;;;23.60;86.40;;;;;;5012563;28;20029;-57
2023/08/27 03:12:19;;;;;;;12.18;8.38;;;23.60;86.30;;;;;;5012690;28;20108;-56
2023/08/27 03:14:45;;;;;;;9.73;7.93;;;23.60;86.40;;;;;;5013066;28;20032;-56
2023/08/27 03:17:11;;;;;;;9.07;8.15;;;23.50;86.40;;;;;;5012399;28;20040;-57
2023/08/27 03:19:36;;;;;;;8.77;7.70;;;23.50;86.50;;;;;;5012479;28;20029;-57
2023/08/27 03:22:02;;;;;;;9.85;8.55;;;23.60;86.60;;;;;;5012294;28;20033;-57
2023/08/27 03:24:28;;;;;;;10.15;8.32;;;23.60;86.60;;;;;;5012603;28;20030;-56
2023/08/27 03:26:54;;;;;;;9.90;8.07;;;23.60;86.50;;;;;;5012076;28;20517;-56
2023/08/27 03:29:21;;;;;;;8.77;7.88;;;23.60;86.50;;;;;;5012187;28;20092;-57
2023/08/27 03:31:47;;;;;;;9.27;8.18;;;23.60;86.50;;;;;;5011803;28;20489;-57
2023/08/27 03:34:13;;;;;;;9.13;8.02;;;23.60;86.40;;;;;;5012019;28;20108;-56
2023/08/27 03:36:40;;;;;;;9.18;8.38;;;23.60;86.40;;;;;;5012037;28;20026;-57
2023/08/27 03:39:05;;;;;;;9.40;8.40;;;23.60;86.40;;;;;;5012078;28;20050;-57
2023/08/27 03:41:31;;;;;;;9.20;8.20;;;23.60;86.40;;;;;;5011721;28;20509;-57
2023/08/27 03:43:57;;;;;;;11.23;8.40;;;23.70;86.40;;;;;;5011765;28;20018;-57
2023/08/27 03:46:23;;;;;;;9.65;8.45;;;23.70;86.30;;;;;;5011488;28;20108;-57
2023/08/27 03:48:48;;;;;;;8.88;7.60;;;23.70;86.40;;;;;;5011583;28;20101;-57
2023/08/27 03:51:14;;;;;;;9.93;8.93;;;23.70;86.10;;;;;;5011576;28;20025;-57
2023/08/27 03:53:40;;;;;;;11.13;9.05;;;23.80;86.10;;;;;;5011517;28;20109;-57
2023/08/27 03:56:06;;;;;;;10.85;9.20;;;23.80;85.90;;;;;;5011383;28;20109;-56
2023/08/27 03:58:32;;;;;;;10.10;8.43;;;23.80;85.80;;;;;;5011640;28;20049;-56
2023/08/27 04:00:58;;;;;;;10.57;8.73;;;23.90;85.80;;;;;;5011679;28;20022;-55
2023/08/27 04:03:24;;;;;;;13.10;9.30;;;23.90;85.50;;;;;;5011630;28;20028;-57
2023/08/27 04:05:50;;;;;;;9.13;7.97;;;23.90;85.30;;;;;;5011626;28;20396;-56
2023/08/27 04:08:16;;;;;;;9.90;8.23;;;24.00;85.40;;;;;;5011432;28;20028;-57
2023/08/27 04:10:52;;;;;;;9.68;8.23;;;24.10;85.10;;;;;;5011309;28;20026;-56
2023/08/27 04:13:18;;;;;;;9.60;8.48;;;24.10;84.80;;;;;;5011353;28;20034;-57
2023/08/27 04:15:47;;;;;;;10.23;8.68;;;24.20;84.70;;;;;;5011359;28;20432;-55
2023/08/27 04:18:13;;;;;;;9.77;8.77;;;24.20;84.50;;;;;;5011845;28;20034;-57
2023/08/27 04:20:38;;;;;;;10.43;8.65;;;24.30;84.30;;;;;;5011211;28;20091;-54
2023/08/27 04:23:04;;;;;;;16.20;9.63;;;24.30;84.30;;;;;;5011343;28;20105;-56
2023/08/27 04:25:30;;;;;;;11.35;9.65;;;24.40;83.90;;;;;;5011522;28;20018;-57
2023/08/27 04:27:56;;;;;;;10.07;9.10;;;24.50;83.80;;;;;;5011268;28;20042;-56
2023/08/27 04:30:22;;;;;;;11.40;9.68;;;24.50;83.60;;;;;;5011665;28;20030;-56
2023/08/27 04:32:48;;;;;;;10.35;9.25;;;24.60;83.30;;;;;;5011641;28;20108;-56
2023/08/27 04:35:14;;;;;;;10.32;9.32;;;24.60;83.10;;;;;;5011320;28;20060;-57
2023/08/27 04:37:40;;;;;;;11.13;8.75;;;24.60;83.00;;;;;;5011496;28;20504;-56
2023/08/27 04:40:06;;;;;;;10.50;8.88;;;24.70;82.80;;;;;;5011391;28;20022;-57
2023/08/27 04:42:32;;;;;;;11.13;8.80;;;24.80;82.60;;;;;;5011570;28;20597;-57
2023/08/27 04:44:58;;;;;;;11.02;9.02;;;24.80;82.50;;;;;;5011269;28;20030;-56
2023/08/27 04:47:23;;;;;;;10.48;9.10;;;24.90;82.50;;;;;;5011186;28;20030;-57
2023/08/27 04:49:49;;;;;;;9.88;8.98;;;24.90;82.30;;;;;;5011240;28;20037;-54
2023/08/27 04:52:15;;;;;;;11.05;8.98;;;25.00;82.10;;;;;;5011308;28;20517;-57
2023/08/27 04:54:41;;;;;;;11.85;9.18;;;25.00;81.70;;;;;;5011817;28;20430;-57
2023/08/27 04:57:06;;;;;;;11.32;9.30;;;25.10;81.40;;;;;;5011453;28;20057;-54
2023/08/27 04:59:32;;;;;;;10.85;8.80;;;25.10;81.30;;;;;;5013832;28;20059;-56
2023/08/27 05:02:00;;;;;;;12.70;9.35;;;25.20;81.20;;;;;;5015037;28;20090;-57
2023/08/27 05:04:29;;;;;;;12.40;8.52;;;25.20;81.00;;;;;;5014980;28;20022;-57
2023/08/27 05:06:55;;;;;;;9.75;8.85;;;25.20;80.80;;;;;;5014971;28;20105;-56
2023/08/27 05:09:20;;;;;;;10.63;8.88;;;25.30;80.90;;;;;;5014754;28;20578;-55
2023/08/27 05:11:46;;;;;;;11.35;8.98;;;25.30;80.70;;;;;;5014247;28;20033;-56
2023/08/27 05:14:11;;;;;;;10.20;9.10;;;25.30;80.40;;;;;;5013871;28;20026;-57
2023/08/27 05:16:37;;;;;;;11.45;9.60;;;25.40;80.50;;;;;;5014397;28;20037;-57
2023/08/27 05:19:03;;;;;;;11.38;8.38;;;25.60;80.00;;;;;;5014106;28;20022;-56
2023/08/27 05:21:28;;;;;;;10.27;9.20;;;25.80;79.50;;;;;;5027578;28;20030;-56
2023/08/27 05:23:54;;;;;;;10.52;8.82;;;25.90;79.00;;;;;;5010434;28;20026;-55
2023/08/27 05:26:20;;;;;;;9.88;8.88;;;26.10;78.40;;;;;;5011999;28;20058;-55
2023/08/27 05:28:45;;;;;;;10.13;8.90;;;26.20;77.80;;;;;;5012609;28;20485;-56
2023/08/27 05:31:11;;;;;;;10.30;9.30;;;26.20;77.60;;;;;;5011258;28;20026;-56
2023/08/27 05:33:37;;;;;;;9.57;8.68;;;26.30;77.40;;;;;;5011812;28;20361;-55
2023/08/27 05:36:03;;;;;;;10.95;9.60;;;26.30;77.10;;;;;;5011019;28;20041;-54
2023/08/27 05:38:28;;;;;;;10.30;9.18;;;26.40;77.20;;;;;;5011734;28;20022;-56
2023/08/27 05:40:54;;;;;;;10.05;9.05;;;26.40;76.90;;;;;;5012065;28;20101;-56
2023/08/27 05:43:20;;;;;;;11.60;9.93;;;26.50;76.80;;;;;;5012186;28;20537;-56
2023/08/27 05:45:45;;;;;;;9.93;8.55;;;26.50;76.40;;;;;;5012946;28;20018;-56
2023/08/27 05:48:11;;;;;;;10.63;9.18;;;26.60;76.30;;;;;;5013323;28;20068;-54
2023/08/27 05:50:36;;;;;;;10.02;9.00;;;26.70;76.30;;;;;;5013652;28;20029;-56
2023/08/27 05:53:04;;;;;;;10.55;9.55;;;26.80;76.30;;;;;;5014152;28;20022;-56
2023/08/27 05:55:29;;;;;;;10.70;9.27;;;26.90;76.30;;;;;;5014334;28;20034;-57
2023/08/27 05:57:55;;;;;;;9.93;8.93;;;26.90;76.30;;;;;;5013961;28;20034;-56
2023/08/27 06:00:21;;;;;;;10.20;9.18;;;26.90;76.40;;;;;;5014282;28;20030;-56
2023/08/27 06:02:46;;;;;;;11.32;9.10;;;27.00;76.10;;;;;;5013246;28;20242;-55
2023/08/27 06:05:13;;;;;;;10.65;9.55;;;27.10;76.00;;;;;;5013739;28;20040;-55
2023/08/27 06:07:39;;;;;;;12.73;9.52;;;27.10;75.80;;;;;;5014067;28;20117;-54
2023/08/27 06:10:05;;;;;;;10.50;9.40;;;27.20;75.70;;;;;;5013358;28;20105;-57
2023/08/27 06:12:31;;;;;;;12.20;9.23;;;27.30;75.40;;;;;;5013672;28;20117;-55
2023/08/27 06:14:57;;;;;;;15.57;9.70;;;27.40;75.30;;;;;;5013837;28;20057;-57
2023/08/27 06:17:22;;;;;;;11.15;9.75;;;27.50;75.20;;;;;;5013135;28;20030;-56
2023/08/27 06:19:48;;;;;;;12.63;9.43;;;27.50;75.20;;;;;;5013332;28;20524;-54
2023/08/27 06:22:14;;;;;;;10.02;8.98;;;27.50;75.00;;;;;;5013409;28;20051;-57
2023/08/27 06:24:39;;;;;;;10.55;9.43;;;27.50;74.70;;;;;;5013469;28;20051;-56
2023/08/27 06:27:05;;;;;;;10.50;9.15;;;27.60;75.00;;;;;;5013212;28;20435;-56
2023/08/27 06:29:31;;;;;;;10.93;9.82;;;27.60;74.80;;;;;;5013434;28;20084;-57
2023/08/27 06:31:56;;;;;;;12.65;10.02;;;27.70;74.80;;;;;;5013347;28;20052;-57
2023/08/27 06:34:22;;;;;;;10.63;9.57;;;27.80;75.30;;;;;;5013299;28;20121;-56
2023/08/27 06:36:48;;;;;;;12.05;9.02;;;27.80;75.70;;;;;;5013537;28;20040;-56
2023/08/27 06:39:13;;;;;;;12.20;9.63;;;27.90;76.00;;;;;;5013487;28;20473;-57
2023/08/27 06:41:39;;;;;;;12.57;9.70;;;27.90;76.00;;;;;;5013266;28;20393;-57
2023/08/27 06:44:05;;;;;;;12.73;10.25;;;28.00;75.40;;;;;;5013241;28;20026;-57
2023/08/27 06:46:30;;;;;;;10.45;9.45;;;28.00;75.00;;;;;;5013510;28;20029;-55
2023/08/27 06:48:56;;;;;;;11.02;9.82;;;28.00;74.60;;;;;;5013070;28;20032;-57
2023/08/27 06:51:22;;;;;;;11.88;9.40;;;28.00;74.60;;;;;;5013117;28;20040;-55
2023/08/27 06:53:47;;;;;;;12.27;9.90;;;28.10;74.40;;;;;;5013052;28;20026;-57
2023/08/27 06:56:13;;;;;;;12.20;9.52;;;28.10;74.20;;;;;;5012814;28;20092;-55
2023/08/27 06:58:39;;;;;;;12.15;10.45;;;28.10;74.40;;;;;;5012974;28;20444;-56
2023/08/27 07:01:04;;;;;;;15.23;9.38;;;28.10;74.70;;;;;;5012788;28;20030;-56
2023/08/27 07:03:31;;;;;;;11.45;9.93;;;28.20;75.10;;;;;;5012797;28;20061;-56
2023/08/27 07:05:57;;;;;;;11.27;9.63;;;28.20;75.30;;;;;;5012559;28;20440;-57
2023/08/27 07:08:22;;;;;;;11.35;9.23;;;28.20;74.80;;;;;;5012814;28;20104;-56
2023/08/27 07:10:48;;;;;;;11.60;9.90;;;28.20;74.40;;;;;;5012373;28;20117;-57
2023/08/27 07:13:14;;;;;;;11.43;9.75;;;28.20;74.40;;;;;;5011533;28;20026;-56
2023/08/27 07:15:40;;;;;;;10.85;9.38;;;28.20;74.50;;;;;;5012508;28;20029;-57
2023/08/27 07:18:05;;;;;;;12.50;10.95;;;28.30;74.80;;;;;;5012334;28;20504;-56
2023/08/27 07:20:33;;;;;;;10.68;9.57;;;28.30;75.20;;;;;;5012433;28;20087;-55
2023/08/27 07:22:59;;;;;;;10.88;9.77;;;28.30;75.50;;;;;;5009617;28;20017;-56
2023/08/27 07:25:24;;;;;;;11.02;10.02;;;28.30;75.70;;;;;;5011243;28;20438;-56
2023/08/27 07:27:50;;;;;;;11.23;10.20;;;28.30;76.10;;;;;;5011827;28;20469;-56
2023/08/27 07:30:16;;;;;;;11.38;10.27;;;28.30;76.60;;;;;;5012465;28;20461;-55
2023/08/27 07:32:41;;;;;;;11.75;10.57;;;28.30;76.80;;;;;;5012045;28;20033;-57
2023/08/27 07:35:07;;;;;;;12.40;11.05;;;28.30;77.10;;;;;;5012062;28;20034;-55
2023/08/27 07:37:33;;;;;;;12.95;10.55;;;28.30;76.90;;;;;;5012301;28;20038;-55
2023/08/27 07:39:59;;;;;;;12.10;10.80;;;28.30;76.60;;;;;;5012130;28;20129;-57
2023/08/27 07:42:24;;;;;;;11.50;10.30;;;28.30;76.70;;;;;;5012288;28;20026;-56
2023/08/27 07:44:50;;;;;;;10.82;9.80;;;28.30;76.20;;;;;;5012054;28;20030;-57
2023/08/27 07:47:16;;;;;;;13.25;10.90;;;28.30;76.50;;;;;;5012010;28;20104;-57
2023/08/27 07:49:41;;;;;;;12.68;11.38;;;28.30;77.20;;;;;;5011798;28;20473;-56
2023/08/27 07:52:08;;;;;;;13.60;11.90;;;28.30;77.10;;;;;;5011964;28;20061;-57
2023/08/27 07:54:33;;;;;;;13.02;11.63;;;28.30;77.20;;;;;;5012094;28;20030;-57
2023/08/27 07:56:59;;;;;;;12.93;11.63;;;28.30;77.30;;;;;;5011806;28;20032;-57
2023/08/27 07:59:25;;;;;;;13.02;11.52;;;28.30;77.30;;;;;;5011698;28;20021;-56
2023/08/27 08:01:51;;;;;;;15.43;13.85;;;28.20;77.00;;;;;;5011776;28;20034;-55
2023/08/27 08:04:16;;;;;;;13.85;12.38;;;28.20;77.10;;;;;;5012048;28;20108;-57
2023/08/27 08:06:42;;;;;;;14.25;12.68;;;28.20;76.80;;;;;;5010427;28;20025;-56
2023/08/27 08:09:08;;;;;;;17.77;14.05;;;28.20;76.60;;;;;;5009917;28;20033;-57
2023/08/27 08:11:34;;;;;;;14.35;12.90;;;28.10;77.00;;;;;;5010675;28;20033;-54
2023/08/27 08:13:59;;;;;;;13.07;11.68;;;28.10;77.00;;;;;;5011189;28;20030;-57
2023/08/27 08:16:25;;;;;;;13.07;11.60;;;28.10;76.60;;;;;;5011316;28;20034;-55
2023/08/27 08:18:51;;;;;;;12.38;10.63;;;28.10;75.90;;;;;;5011516;28;20034;-55
2023/08/27 08:21:19;;;;;;;12.02;10.82;;;28.00;74.80;;;;;;5010754;28;20092;-54
2023/08/27 08:23:45;;;;;;;17.52;15.70;;;28.00;74.30;;;;;;5010946;28;20030;-56
2023/08/27 08:26:11;;;;;;;13.38;12.00;;;28.10;74.10;;;;;;5009971;28;20048;-56
2023/08/27 08:28:36;;;;;;;12.20;10.88;;;28.00;73.90;;;;;;5006346;28;20030;-56
2023/08/27 08:31:03;;;;;;;12.25;10.98;;;28.00;73.10;;;;;;5007209;28;20030;-56
2023/08/27 08:33:28;;;;;;;14.00;10.93;;;28.00;73.00;;;;;;5009421;28;20049;-55
2023/08/27 08:35:54;;;;;;;11.43;9.68;;;28.00;73.10;;;;;;5013247;28;20100;-56
2023/08/27 08:38:19;;;;;;;12.30;10.48;;;28.00;73.00;;;;;;5012620;28;20486;-56
2023/08/27 08:40:49;;;;;;;11.60;10.40;;;28.00;72.70;;;;;;5013241;28;20029;-55
2023/08/27 08:43:32;;;;;;;12.70;10.52;;;28.00;72.50;;;;;;5013749;28;20402;-56
2023/08/27 08:46:06;;;;;;;12.57;10.05;;;28.00;72.70;;;;;;5014705;28;20080;-57
2023/08/27 08:48:41;;;;;;;11.45;9.43;;;28.00;72.80;;;;;;5014594;28;20080;-56
2023/08/27 08:51:09;;;;;;;12.38;10.65;;;28.00;72.50;;;;;;5014789;28;20061;-56
2023/08/27 08:53:46;;;;;;;11.95;9.75;;;27.90;72.10;;;;;;5014572;28;20058;-53
2023/08/27 08:56:14;;;;;;;11.02;9.93;;;27.90;72.10;;;;;;5015074;28;20398;-57
2023/08/27 08:58:43;;;;;;;12.13;10.07;;;27.90;71.80;;;;;;5015263;28;20049;-57
2023/08/27 09:01:09;;;;;;;11.63;9.70;;;27.90;72.10;;;;;;5014977;28;20045;-56
2023/08/27 09:03:36;;;;;;;11.35;10.00;;;27.90;71.60;;;;;;5015023;28;20026;-55
2023/08/27 09:06:02;;;;;;;12.15;10.38;;;27.90;72.80;;;;;;5014899;28;20040;-56
2023/08/27 09:08:30;;;;;;;12.27;10.15;;;27.90;72.20;;;;;;5014443;28;20084;-55
2023/08/27 09:10:56;;;;;;;13.93;10.35;;;28.00;72.90;;;;;;5014803;28;20503;-56
2023/08/27 09:13:22;;;;;;;10.65;9.25;;;28.00;72.70;;;;;;5014491;28;20038;-56
2023/08/27 09:15:49;;;;;;;12.07;8.95;;;28.00;72.80;;;;;;5013138;28;20041;-56
2023/08/27 09:18:15;;;;;;;9.40;8.45;;;28.10;72.90;;;;;;5015114;28;20387;-57
2023/08/27 09:20:44;;;;;;;9.57;8.55;;;28.20;72.50;;;;;;5014516;28;20398;-56
2023/08/27 09:23:11;;;;;;;9.55;8.55;;;28.20;73.10;;;;;;5014625;28;20501;-57
2023/08/27 09:25:37;;;;;;;9.65;8.65;;;28.30;72.80;;;;;;5013175;28;20022;-57
2023/08/27 09:28:04;;;;;;;8.85;7.28;;;28.30;73.10;;;;;;5012552;28;20081;-57
2023/08/27 09:30:30;;;;;;;8.73;7.82;;;28.40;72.00;;;;;;5013952;28;20467;-57
2023/08/27 09:32:56;;;;;;;11.02;7.03;;;28.50;71.80;;;;;;5014450;28;20087;-56
2023/08/27 09:35:22;;;;;;;9.90;8.88;;;28.60;71.50;;;;;;5014335;28;20533;-56
2023/08/27 09:37:47;;;;;;;15.75;14.02;;;28.60;71.60;;;;;;5014360;28;20065;-55
2023/08/27 09:40:16;;;;;;;10.05;9.05;;;28.70;72.10;;;;;;5014592;28;20177;-57
2023/08/27 09:42:43;;;;;;;10.07;8.02;;;28.80;71.70;;;;;;5014633;28;20485;-56
2023/08/27 09:45:09;;;;;;;7.57;6.88;;;28.80;71.60;;;;;;5013356;28;20534;-56
2023/08/27 09:47:38;;;;;;;9.13;7.53;;;28.90;71.40;;;;;;5014483;28;20101;-57
2023/08/27 09:50:14;;;;;;;9.68;7.40;;;28.90;70.90;;;;;;5014496;28;20104;-56
2023/08/27 09:52:39;;;;;;;9.05;7.40;;;29.00;70.70;;;;;;5014110;28;20440;-57
2023/08/27 09:55:13;;;;;;;8.02;6.63;;;29.00;71.00;;;;;;5014055;28;20022;-57
2023/08/27 09:57:39;;;;;;;6.97;6.28;;;29.00;71.40;;;;;;5013627;28;20030;-57
2023/08/27 10:00:09;;;;;;;7.40;6.70;;;29.00;71.00;;;;;;5014040;28;20029;-56
2023/08/27 10:02:35;;;;;;;7.90;7.10;;;29.00;71.00;;;;;;5014251;28;20473;-55
2023/08/27 10:05:01;;;;;;;7.30;6.38;;;29.00;71.00;;;;;;5013826;28;20569;-56
2023/08/27 10:07:26;;;;;;;8.00;6.70;;;29.00;70.50;;;;;;5014026;28;20115;-54
2023/08/27 10:09:54;;;;;;;7.50;6.45;;;29.00;70.10;;;;;;5013786;28;20108;-56
2023/08/27 10:12:21;;;;;;;7.13;6.43;;;29.00;70.10;;;;;;5014017;28;20111;-57
2023/08/27 10:14:47;;;;;;;10.10;6.53;;;29.00;70.00;;;;;;5014011;28;20124;-55
2023/08/27 10:17:14;;;;;;;8.15;6.03;;;29.00;69.10;;;;;;5013879;28;20045;-55
2023/08/27 10:19:40;;;;;;;7.80;6.43;;;28.90;68.50;;;;;;5013648;28;20014;-56
2023/08/27 10:22:06;;;;;;;7.55;6.10;;;28.90;68.80;;;;;;5013815;28;20135;-56
2023/08/27 10:24:34;;;;;;;7.13;6.30;;;28.90;69.00;;;;;;5014014;28;20029;-57
2023/08/27 10:27:03;;;;;;;8.30;6.47;;;28.90;69.30;;;;;;5013467;28;20132;-57
2023/08/27 10:29:29;;;;;;;10.98;6.65;;;28.80;69.70;;;;;;5013655;28;20110;-57
2023/08/27 10:31:56;;;;;;;7.13;6.43;;;28.80;69.50;;;;;;5013479;28;20022;-57
2023/08/27 10:34:23;;;;;;;10.98;6.38;;;28.80;69.80;;;;;;5013372;28;20371;-56
2023/08/27 10:36:52;;;;;;;8.05;6.45;;;28.70;70.20;;;;;;5013164;28;20034;-57
2023/08/27 10:39:25;;;;;;;8.05;5.85;;;28.70;70.40;;;;;;5013456;28;20030;-56
2023/08/27 10:41:51;;;;;;;6.82;5.82;;;28.70;70.70;;;;;;5013419;28;20026;-57
2023/08/27 10:44:20;;;;;;;7.35;5.80;;;28.60;70.80;;;;;;5013422;28;20022;-56
2023/08/27 10:47:09;;;;;;;6.10;5.40;;;28.70;70.40;;;;;;5013178;28;20030;-58
2023/08/27 10:49:39;;;;;;;7.22;5.70;;;28.60;69.90;;;;;;5013191;28;20869;-57
2023/08/27 10:52:17;;;;;;;6.57;5.95;;;28.50;70.50;;;;;;5013384;28;20109;-57
2023/08/27 10:54:44;;;;;;;8.00;6.40;;;28.50;70.70;;;;;;5012924;28;20449;-57
2023/08/27 10:57:22;;;;;;;7.03;6.40;;;28.50;71.30;;;;;;5012565;28;20084;-56
2023/08/27 10:59:48;;;;;;;7.20;6.50;;;28.50;71.30;;;;;;5012855;28;20513;-56
2023/08/27 11:02:16;;;;;;;8.68;6.70;;;28.40;71.30;;;;;;5013129;28;20034;-58
2023/08/27 11:04:53;;;;;;;8.52;7.63;;;28.40;71.80;;;;;;5013005;28;20101;-57
2023/08/27 11:07:19;;;;;;;8.75;7.82;;;28.40;71.70;;;;;;5013143;28;20034;-56
2023/08/27 11:09:49;;;;;;;8.52;7.60;;;28.40;71.00;;;;;;5012810;28;20047;-57
2023/08/27 11:12:34;;;;;;;8.25;7.45;;;28.40;70.90;;;;;;5013258;28;20470;-57
2023/08/27 11:15:14;;;;;;;8.63;7.60;;;28.50;71.00;;;;;;5012615;28;20030;-56
2023/08/27 11:17:40;;;;;;;;;;;28.50;71.00;;;;;;5012793;28;20121;-58
2023/08/27 11:20:38;;;;;;;10.38;7.68;;;28.50;71.20;;;;;;5012592;28;20341;-57
2023/08/27 11:23:08;;;;;;;8.82;7.47;;;28.50;71.10;;;;;;4990000;28;20116;-57
2023/08/27 11:25:36;;;;;;;7.95;6.97;;;28.50;71.30;;;;;;5012381;28;20030;-57
2023/08/27 11:28:04;;;;;;;8.90;8.00;;;28.50;71.40;;;;;;5012330;28;20504;-56
2023/08/27 11:30:30;;;;;;;10.82;7.55;;;28.50;71.40;;;;;;5012348;28;20025;-57
2023/08/27 11:32:57;;;;;;;9.45;6.90;;;28.50;71.10;;;;;;5012377;28;20503;-57
2023/08/27 11:35:31;;;;;;;10.82;6.90;;;28.50;69.70;;;;;;5012490;28;20025;-56
2023/08/27 11:37:57;;;;;;;9.82;6.13;;;28.50;69.00;;;;;;5012532;28;20389;-57
2023/08/27 11:40:24;;;;;;;7.45;6.57;;;28.40;68.90;;;;;;5012768;28;20017;-56
2023/08/27 11:42:55;;;;;;;7.47;5.47;;;28.40;68.90;;;;;;5012200;28;20536;-57
2023/08/27 11:45:31;;;;;;;8.50;5.85;;;28.30;69.00;;;;;;5011905;28;20077;-56
2023/08/27 11:48:02;;;;;;;5.85;4.88;;;28.20;68.80;;;;;;5012053;28;20109;-56
2023/08/27 11:50:28;;;;;;;5.75;4.70;;;28.10;68.40;;;;;;5012305;28;20030;-57
2023/08/27 11:52:55;;;;;;;6.35;4.22;;;28.00;68.30;;;;;;5011887;28;20022;-56
2023/08/27 11:55:23;;;;;;;5.22;4.72;;;28.00;68.10;;;;;;5012187;28;20477;-56
2023/08/27 11:57:51;;;;;;;4.72;4.15;;;28.00;67.90;;;;;;5012079;28;20034;-55
2023/08/27 12:00:17;;;;;;;7.13;4.72;;;27.90;67.90;;;;;;5011821;28;20546;-56
2023/08/27 12:02:43;;;;;;;5.00;4.13;;;27.90;67.60;;;;;;5011891;28;20097;-56
2023/08/27 12:05:09;;;;;;;8.55;4.95;;;27.90;67.40;;;;;;5011207;28;20049;-57
2023/08/27 12:07:36;;;;;;;6.47;4.30;;;27.90;67.40;;;;;;5011533;28;20026;-57
2023/08/27 12:10:11;;;;;;;5.13;4.30;;;27.90;67.30;;;;;;5009411;28;20397;-57
2023/08/27 12:12:40;;;;;;;6.20;4.75;;;27.90;67.40;;;;;;5009292;28;20041;-56
2023/08/27 12:15:07;;;;;;;7.03;4.97;;;27.90;67.40;;;;;;5010077;28;20084;-57
2023/08/27 12:17:34;;;;;;;5.85;5.15;;;27.90;67.40;;;;;;5010086;28;20044;-56
2023/08/27 12:20:02;;;;;;;6.28;5.10;;;27.90;67.70;;;;;;5010312;28;20029;-57
2023/08/27 12:22:28;;;;;;;6.30;5.13;;;27.90;67.80;;;;;;5010511;28;20432;-56
2023/08/27 12:24:55;;;;;;;6.35;5.20;;;27.90;67.40;;;;;;5011028;28;20026;-57
2023/08/27 12:27:22;;;;;;;7.35;5.55;;;27.90;67.40;;;;;;5011129;28;20576;-57
2023/08/27 12:29:52;;;;;;;5.20;4.70;;;27.90;67.50;;;;;;5011281;28;20026;-55
2023/08/27 12:32:21;;;;;;;6.10;5.20;;;27.90;67.50;;;;;;5011236;28;20026;-57
2023/08/27 12:34:52;;;;;;;6.63;5.55;;;27.90;67.30;;;;;;5011559;28;20022;-57
2023/08/27 12:37:19;;;;;;;7.18;5.57;;;27.90;67.30;;;;;;5011164;28;20037;-56
2023/08/27 12:39:46;;;;;;;6.80;6.10;;;27.90;67.50;;;;;;5010961;28;20033;-56